createdAt,value
2023-03-12T00:02:28.293Z,4.07
2023-03-12T00:05:33.079Z,4.70
2023-03-12T00:08:38.282Z,4.30
2023-03-12T00:11:43.298Z,4.10
2023-03-12T00:14:47.746Z,5.82
2023-03-12T00:17:52.131Z,4.47
2023-03-12T00:20:56.804Z,5.18
2023-03-12T00:24:01.469Z,4.05
2023-03-12T00:27:07.470Z,5.50
2023-03-12T00:30:13.041Z,4.47
2023-03-12T00:33:18.053Z,4.47
2023-03-12T00:36:27.078Z,6.15
2023-03-12T00:39:32.480Z,7.00
2023-03-12T00:42:37.250Z,6.75
2023-03-12T00:45:42.067Z,4.68
2023-03-12T00:48:47.008Z,4.90
2023-03-12T00:51:51.414Z,5.13
2023-03-12T00:54:58.814Z,4.57
2023-03-12T00:58:03.306Z,4.45
2023-03-12T01:01:08.206Z,4.70
2023-03-12T01:04:13.564Z,5.68
2023-03-12T01:07:17.937Z,5.13
2023-03-12T01:10:23.220Z,4.10
2023-03-12T01:13:28.385Z,4.10
2023-03-12T01:16:33.155Z,5.80
2023-03-12T01:19:38.254Z,5.07
2023-03-12T01:22:44.108Z,5.70
2023-03-12T01:25:49.620Z,5.60
2023-03-12T01:28:54.045Z,4.72
2023-03-12T01:31:58.892Z,6.65
2023-03-12T01:35:04.075Z,4.47
2023-03-12T01:38:14.135Z,6.40
2023-03-12T01:41:19.580Z,3.83
2023-03-12T01:44:24.528Z,4.63
2023-03-12T01:47:32.290Z,5.30
2023-03-12T01:50:39.297Z,4.25
2023-03-12T01:53:49.392Z,4.82
2023-03-12T01:56:55.971Z,4.35
2023-03-12T02:00:11.679Z,5.72
2023-03-12T02:03:20.646Z,5.55
2023-03-12T02:06:50.126Z,5.82
2023-03-12T02:09:55.165Z,4.72
2023-03-12T02:12:59.998Z,5.22
2023-03-12T02:16:05.419Z,3.97
2023-03-12T02:19:44.586Z,5.47
2023-03-12T02:23:03.066Z,5.18
2023-03-12T02:26:09.132Z,4.32
2023-03-12T02:29:15.693Z,2.90
2023-03-12T02:32:39.498Z,4.72
2023-03-12T02:35:47.774Z,4.53
2023-03-12T02:38:54.452Z,4.57
2023-03-12T02:42:00.372Z,5.18
2023-03-12T02:45:06.219Z,3.08
2023-03-12T02:48:10.671Z,3.45
2023-03-12T02:51:15.364Z,4.60
2023-03-12T02:54:20.986Z,4.32
2023-03-12T02:57:26.285Z,4.10
2023-03-12T03:00:32.267Z,3.70
2023-03-12T03:03:37.350Z,2.83
2023-03-12T03:06:43.881Z,3.33
2023-03-12T03:09:49.608Z,4.47
2023-03-12T03:12:54.836Z,3.45
2023-03-12T03:16:01.926Z,4.47
2023-03-12T03:19:07.390Z,4.03
2023-03-12T03:22:12.498Z,3.13
2023-03-12T03:25:18.192Z,4.28
2023-03-12T03:28:25.661Z,5.22
2023-03-12T03:31:30.572Z,4.05
2023-03-12T03:34:35.806Z,3.78
2023-03-12T03:37:40.778Z,5.38
2023-03-12T03:40:46.109Z,4.65
2023-03-12T03:43:51.142Z,3.60
2023-03-12T03:46:58.308Z,3.10
2023-03-12T03:50:04.806Z,5.05
2023-03-12T03:53:10.174Z,4.10
2023-03-12T03:56:16.208Z,3.88
2023-03-12T03:59:24.654Z,5.65
2023-03-12T04:02:29.376Z,4.13
2023-03-12T04:05:34.687Z,4.57
2023-03-12T04:08:39.646Z,5.20
2023-03-12T04:11:48.025Z,4.25
2023-03-12T04:14:53.561Z,5.28
2023-03-12T04:17:58.374Z,3.97
2023-03-12T04:21:07.822Z,5.15
2023-03-12T04:24:17.655Z,5.57
2023-03-12T04:27:23.013Z,5.05
2023-03-12T04:30:28.285Z,5.85
2023-03-12T04:33:36.753Z,4.78
2023-03-12T04:36:42.195Z,4.00
2023-03-12T04:39:46.707Z,5.60
2023-03-12T04:42:51.856Z,5.03
2023-03-12T04:45:57.887Z,3.95
2023-03-12T04:49:04.325Z,5.15
2023-03-12T04:52:11.333Z,3.97
2023-03-12T04:55:15.990Z,5.82
2023-03-12T04:58:22.174Z,4.82
2023-03-12T05:01:33.555Z,3.28
2023-03-12T05:04:41.055Z,2.97
2023-03-12T05:07:45.871Z,5.22
2023-03-12T05:10:50.482Z,4.55
2023-03-12T05:13:56.062Z,3.28
2023-03-12T05:17:01.346Z,3.65
2023-03-12T05:20:06.543Z,4.43
2023-03-12T05:23:11.567Z,4.47
2023-03-12T05:26:32.536Z,4.57
2023-03-12T05:29:46.822Z,4.10
2023-03-12T05:32:52.682Z,5.95
2023-03-12T05:35:58.179Z,5.38
2023-03-12T05:39:03.296Z,7.50
2023-03-12T05:42:10.018Z,6.68
2023-03-12T05:45:15.202Z,4.15
2023-03-12T05:48:25.912Z,4.10
2023-03-12T05:51:30.794Z,7.13
2023-03-12T05:54:35.710Z,7.97
2023-03-12T05:57:42.045Z,4.63
2023-03-12T06:00:47.045Z,6.93
2023-03-12T06:03:54.733Z,5.57
2023-03-12T06:07:00.881Z,6.18
2023-03-12T06:10:09.086Z,5.88
2023-03-12T06:13:13.715Z,6.20
2023-03-12T06:16:23.307Z,8.02
2023-03-12T06:19:31.101Z,7.00
2023-03-12T06:22:42.020Z,4.40
2023-03-12T06:25:47.965Z,5.88
2023-03-12T06:28:54.329Z,5.25
2023-03-12T06:31:58.962Z,4.60
2023-03-12T06:35:05.806Z,4.72
2023-03-12T06:38:10.485Z,6.10
2023-03-12T06:41:19.386Z,6.65
2023-03-12T06:44:24.211Z,5.40
2023-03-12T06:47:29.219Z,4.68
2023-03-12T06:50:34.204Z,8.35
2023-03-12T06:53:42.113Z,5.22
2023-03-12T06:56:47.316Z,7.32
2023-03-12T06:59:52.245Z,5.32
2023-03-12T07:02:57.109Z,6.47
2023-03-12T07:06:02.362Z,4.30
2023-03-12T07:09:07.089Z,6.38
2023-03-12T07:12:11.820Z,5.45
2023-03-12T07:15:16.794Z,5.32
2023-03-12T07:18:21.165Z,5.07
2023-03-12T07:21:26.430Z,4.60
2023-03-12T07:24:31.248Z,5.07
2023-03-12T07:27:35.936Z,5.95
2023-03-12T07:30:41.618Z,5.63
2023-03-12T07:33:46.268Z,5.13
2023-03-12T07:36:51.042Z,7.03
2023-03-12T07:39:56.230Z,4.40
2023-03-12T07:43:00.687Z,5.28
2023-03-12T07:46:05.470Z,6.80
2023-03-12T07:49:10.172Z,5.35
2023-03-12T07:52:15.611Z,6.07
2023-03-12T07:55:20.380Z,6.43
2023-03-12T07:58:25.305Z,5.10
2023-03-12T08:01:32.269Z,6.25
2023-03-12T08:04:36.885Z,5.10
2023-03-12T08:07:41.439Z,5.32
2023-03-12T08:10:45.797Z,6.70
2023-03-12T08:13:50.159Z,5.70
2023-03-12T08:16:54.478Z,5.72
2023-03-12T08:19:59.223Z,6.53
2023-03-12T08:23:04.103Z,4.35
2023-03-12T08:26:08.855Z,6.15
2023-03-12T08:29:13.732Z,7.22
2023-03-12T08:32:18.541Z,4.50
2023-03-12T08:35:23.417Z,7.18
2023-03-12T08:38:28.255Z,5.00
2023-03-12T08:41:33.065Z,5.45
2023-03-12T08:44:37.691Z,5.45
2023-03-12T08:47:44.641Z,7.07
2023-03-12T08:50:49.787Z,6.07
2023-03-12T08:53:54.135Z,6.45
2023-03-12T08:56:58.804Z,6.57
2023-03-12T09:00:06.053Z,5.07
2023-03-12T09:03:14.011Z,5.43
2023-03-12T09:06:19.678Z,4.00
2023-03-12T09:09:24.212Z,5.80
2023-03-12T09:12:28.911Z,6.32
2023-03-12T09:15:34.143Z,6.50
2023-03-12T09:18:40.087Z,5.78
2023-03-12T09:21:44.949Z,7.28
2023-03-12T09:24:50.139Z,5.00
2023-03-12T09:27:54.988Z,4.72
2023-03-12T09:31:03.606Z,5.70
2023-03-12T09:34:08.716Z,5.57
2023-03-12T09:37:13.683Z,5.85
2023-03-12T09:40:24.157Z,3.78
2023-03-12T09:43:34.625Z,6.25
2023-03-12T09:46:51.015Z,5.32
2023-03-12T09:50:05.484Z,5.07
2023-03-12T09:53:39.348Z,6.30
2023-03-12T09:56:44.849Z,5.25
2023-03-12T09:59:53.032Z,5.70
2023-03-12T10:03:11.256Z,5.75
2023-03-12T10:06:22.056Z,5.63
2023-03-12T10:09:46.375Z,6.65
2023-03-12T10:13:22.711Z,6.47
2023-03-12T10:17:03.530Z,5.53
2023-03-12T10:20:39.967Z,6.55
2023-03-12T10:24:00.352Z,6.03
2023-03-12T10:27:17.112Z,6.93
2023-03-12T10:30:26.187Z,6.60
2023-03-12T10:33:57.250Z,7.80
2023-03-12T10:37:16.614Z,6.78
2023-03-12T10:40:35.785Z,8.73
2023-03-12T10:43:43.703Z,9.15
2023-03-12T10:47:00.885Z,7.47
2023-03-12T10:50:20.673Z,7.75
2023-03-12T10:53:33.004Z,7.38
2023-03-12T10:56:53.847Z,7.82
2023-03-12T11:00:11.989Z,10.38
2023-03-12T11:03:21.806Z,12.13
2023-03-12T11:06:30.838Z,8.98
2023-03-12T11:09:36.256Z,9.70
2023-03-12T11:12:52.098Z,10.45
2023-03-12T11:16:17.267Z,9.82
2023-03-12T11:19:34.493Z,9.50
2023-03-12T11:22:39.226Z,8.18
2023-03-12T11:26:05.678Z,13.13
2023-03-12T11:29:33.639Z,12.38
2023-03-12T11:32:47.832Z,12.23
2023-03-12T11:36:31.430Z,9.07
2023-03-12T11:39:57.265Z,9.30
2023-03-12T11:43:29.349Z,10.18
2023-03-12T11:47:24.445Z,12.95
2023-03-12T11:50:44.738Z,11.93
2023-03-12T11:54:37.911Z,10.23
2023-03-12T11:58:24.020Z,10.25
2023-03-12T12:02:05.736Z,13.40
2023-03-12T12:05:28.576Z,10.85
2023-03-12T12:08:52.367Z,13.43
2023-03-12T12:12:51.007Z,13.60
2023-03-12T12:16:26.583Z,11.60
2023-03-12T12:19:59.259Z,11.60
2023-03-12T12:23:33.163Z,9.88
2023-03-12T12:26:46.706Z,7.37
2023-03-12T12:30:21.794Z,8.93
2023-03-12T12:37:38.306Z,13.98
2023-03-12T12:40:54.717Z,12.40
2023-03-12T12:44:31.398Z,6.68
2023-03-12T12:47:48.933Z,12.32
2023-03-12T12:50:55.509Z,11.98
2023-03-12T12:54:21.980Z,10.75
2023-03-12T12:57:45.249Z,8.98
2023-03-12T13:00:53.167Z,12.32
2023-03-12T13:04:09.733Z,15.40
2023-03-12T13:07:20.564Z,14.95
2023-03-12T13:10:34.660Z,13.73
2023-03-12T13:13:39.777Z,11.35
2023-03-12T13:16:47.247Z,11.80
2023-03-12T13:20:01.535Z,17.42
2023-03-12T13:24:06.575Z,13.48
2023-03-12T13:27:32.139Z,13.40
2023-03-12T13:30:40.321Z,10.18
2023-03-12T13:33:48.617Z,13.60
2023-03-12T13:37:02.568Z,12.43
2023-03-12T13:40:29.532Z,13.65
2023-03-12T13:43:39.881Z,13.98
2023-03-12T13:46:46.790Z,13.85
2023-03-12T13:50:15.468Z,15.35
2023-03-12T13:53:40.393Z,13.60
2023-03-12T13:56:59.096Z,14.10
2023-03-12T14:00:20.357Z,21.70
2023-03-12T14:03:39.886Z,13.85
2023-03-12T14:07:14.513Z,13.88
2023-03-12T14:10:52.629Z,11.20
2023-03-12T14:14:18.950Z,22.27
2023-03-12T14:17:27.245Z,17.40
2023-03-12T14:20:37.135Z,16.52
2023-03-12T14:23:54.262Z,13.13
2023-03-12T14:27:02.488Z,9.30
2023-03-12T14:30:16.528Z,13.32
2023-03-12T14:33:22.188Z,16.80
2023-03-12T14:36:36.412Z,21.02
2023-03-12T14:39:56.719Z,14.05
2023-03-12T14:43:01.674Z,12.73
2023-03-12T14:46:19.458Z,14.50
2023-03-12T14:49:24.071Z,20.60
2023-03-12T14:52:30.588Z,14.32
2023-03-12T14:55:38.652Z,15.07
2023-03-12T14:58:47.531Z,13.18
2023-03-12T15:01:59.088Z,14.13
2023-03-12T15:05:06.237Z,14.95
2023-03-12T15:08:12.993Z,20.13
2023-03-12T15:11:24.571Z,16.70
2023-03-12T15:14:35.443Z,17.95
2023-03-12T15:17:40.179Z,13.88
2023-03-12T15:20:47.300Z,11.00
2023-03-12T15:23:52.553Z,16.02
2023-03-12T15:26:57.321Z,10.48
2023-03-12T15:30:22.297Z,16.65
2023-03-12T15:33:28.828Z,14.35
2023-03-12T15:36:45.045Z,16.98
2023-03-12T15:39:53.718Z,14.80
2023-03-12T15:43:03.448Z,18.33
2023-03-12T15:46:12.266Z,14.57
2023-03-12T15:49:28.328Z,15.07
2023-03-12T15:52:36.006Z,13.98
2023-03-12T15:55:44.356Z,16.75
2023-03-12T15:59:24.594Z,14.13
2023-03-12T16:02:52.525Z,16.10
2023-03-12T16:05:57.944Z,17.17
2023-03-12T16:09:04.225Z,12.70
2023-03-12T16:12:11.295Z,15.27
2023-03-12T16:15:22.697Z,16.85
2023-03-12T16:18:27.609Z,14.77
2023-03-12T16:21:32.402Z,15.88
2023-03-12T16:24:37.576Z,23.58
2023-03-12T16:27:53.945Z,15.98
2023-03-12T16:30:58.604Z,16.42
2023-03-12T16:34:03.298Z,16.60
2023-03-12T16:37:12.796Z,11.48
2023-03-12T16:40:31.160Z,12.07
2023-03-12T16:43:37.449Z,9.52
2023-03-12T16:46:44.482Z,14.15
2023-03-12T16:49:49.138Z,14.20
2023-03-12T16:52:55.609Z,14.63
2023-03-12T16:56:02.004Z,20.02
2023-03-12T16:59:33.279Z,11.52
2023-03-12T17:02:39.002Z,18.85
2023-03-12T17:05:44.308Z,18.27
2023-03-12T17:08:50.318Z,15.48
2023-03-12T17:11:55.535Z,14.93
2023-03-12T17:15:01.397Z,14.98
2023-03-12T17:18:09.231Z,12.23
2023-03-12T17:21:17.316Z,13.50
2023-03-12T17:24:27.904Z,12.40
2023-03-12T17:27:33.171Z,15.80
2023-03-12T17:30:38.211Z,14.63
2023-03-12T17:33:45.261Z,13.95
2023-03-12T17:36:50.041Z,21.27
2023-03-12T17:39:54.726Z,13.40
2023-03-12T17:42:59.593Z,14.50
2023-03-12T17:46:09.432Z,13.25
2023-03-12T17:49:13.928Z,13.57
2023-03-12T17:52:18.971Z,11.90
2023-03-12T17:55:23.971Z,13.75
2023-03-12T17:58:28.959Z,15.80
2023-03-12T18:01:33.583Z,12.77
2023-03-12T18:04:38.029Z,10.02
2023-03-12T18:07:42.564Z,12.85
2023-03-12T18:10:48.961Z,10.80
2023-03-12T18:13:53.661Z,14.43
2023-03-12T18:16:59.468Z,11.27
2023-03-12T18:20:09.608Z,11.35
2023-03-12T18:23:15.811Z,14.38
2023-03-12T18:26:21.473Z,12.68
2023-03-12T18:29:26.992Z,8.82
2023-03-12T18:32:31.902Z,12.05
2023-03-12T18:35:36.932Z,14.95
2023-03-12T18:38:41.405Z,16.02
2023-03-12T18:41:46.405Z,12.27
2023-03-12T18:44:51.177Z,10.30
2023-03-12T18:47:56.815Z,13.35
2023-03-12T18:51:01.524Z,15.20
2023-03-12T18:54:06.115Z,16.27
2023-03-12T18:57:12.427Z,12.38
2023-03-12T19:00:18.121Z,11.43
2023-03-12T19:03:23.747Z,14.48
2023-03-12T19:06:29.699Z,13.68
2023-03-12T19:09:39.476Z,14.57
2023-03-12T19:12:53.675Z,12.25
2023-03-12T19:16:01.731Z,10.48
2023-03-12T19:19:08.223Z,16.40
2023-03-12T19:22:12.468Z,11.90
2023-03-12T19:25:17.083Z,12.23
2023-03-12T19:28:22.093Z,12.57
2023-03-12T19:31:26.982Z,13.35
2023-03-12T19:34:31.454Z,11.68
2023-03-12T19:37:35.809Z,12.77
2023-03-12T19:40:40.436Z,10.60
2023-03-12T19:43:45.900Z,13.63
2023-03-12T19:46:50.632Z,9.98
2023-03-12T19:49:55.071Z,7.60
2023-03-12T19:52:59.757Z,11.15
2023-03-12T19:56:05.367Z,7.60
2023-03-12T19:59:10.818Z,12.00
2023-03-12T20:02:16.081Z,16.73
2023-03-12T20:05:20.985Z,11.38
2023-03-12T20:08:31.007Z,12.68
2023-03-12T20:11:35.857Z,7.72
2023-03-12T20:14:42.684Z,12.68
2023-03-12T20:17:47.307Z,12.00
2023-03-12T20:20:51.806Z,11.20
2023-03-12T20:23:57.413Z,11.07
2023-03-12T20:27:02.288Z,10.25
2023-03-12T20:30:09.661Z,7.82
2023-03-12T20:33:14.140Z,12.27
2023-03-12T20:36:19.017Z,7.97
2023-03-12T20:39:23.632Z,10.85
2023-03-12T20:42:28.286Z,10.50
2023-03-12T20:45:34.152Z,15.43
2023-03-12T20:48:39.071Z,11.13
2023-03-12T20:51:44.762Z,7.90
2023-03-12T20:54:49.251Z,14.57
2023-03-12T20:57:54.089Z,10.52
2023-03-12T21:01:04.399Z,13.10
2023-03-12T21:04:08.985Z,11.10
2023-03-12T21:07:13.432Z,11.15
2023-03-12T21:10:18.420Z,12.45
2023-03-12T21:13:23.954Z,13.70
2023-03-12T21:16:30.190Z,11.73
2023-03-12T21:19:35.253Z,10.70
2023-03-12T21:22:40.675Z,12.10
2023-03-12T21:25:45.379Z,11.07
2023-03-12T21:28:50.138Z,10.70
2023-03-12T21:31:54.870Z,9.80
2023-03-12T21:34:59.691Z,12.63
2023-03-12T21:38:04.240Z,16.45
2023-03-12T21:41:12.936Z,8.68
2023-03-12T21:44:17.526Z,8.85
2023-03-12T21:47:22.337Z,11.38
2023-03-12T21:50:26.678Z,8.07
2023-03-12T21:53:31.740Z,12.43
2023-03-12T21:56:36.267Z,12.18
2023-03-12T21:59:41.016Z,8.07
2023-03-12T22:02:45.896Z,14.18
2023-03-12T22:05:51.984Z,17.02
2023-03-12T22:08:56.837Z,14.52
2023-03-12T22:12:01.822Z,9.80
2023-03-12T22:15:08.274Z,9.23
2023-03-12T22:18:12.933Z,11.48
2023-03-12T22:21:22.954Z,9.05
2023-03-12T22:24:27.452Z,14.57
2023-03-12T22:27:31.969Z,11.88
2023-03-12T22:30:36.615Z,15.95
2023-03-12T22:33:40.997Z,13.73
2023-03-12T22:36:45.477Z,13.45
2023-03-12T22:39:51.309Z,10.23
2023-03-12T22:42:57.481Z,14.90
2023-03-12T22:46:02.288Z,13.45
2023-03-12T22:49:06.771Z,15.48
2023-03-12T22:52:11.116Z,11.93
2023-03-12T22:55:15.763Z,9.93
2023-03-12T22:58:20.437Z,12.70
2023-03-12T23:01:25.619Z,10.63
2023-03-12T23:04:29.976Z,12.23
2023-03-12T23:07:34.676Z,12.55
2023-03-12T23:10:39.199Z,12.77
2023-03-12T23:13:45.668Z,10.50
2023-03-12T23:16:49.980Z,10.75
2023-03-12T23:19:54.709Z,9.50
2023-03-12T23:22:59.452Z,12.85
2023-03-12T23:26:04.434Z,9.13
2023-03-12T23:29:12.389Z,10.38
2023-03-12T23:32:17.006Z,11.10
2023-03-12T23:35:21.558Z,11.40
2023-03-12T23:38:26.969Z,17.08
2023-03-12T23:41:31.734Z,11.35
2023-03-12T23:44:36.584Z,8.90
2023-03-12T23:47:41.397Z,10.15
2023-03-12T23:50:45.810Z,10.60
2023-03-12T23:53:54.564Z,13.50
2023-03-12T23:56:58.804Z,10.05
